sensor_id;sensor_type;location;lat;lon;timestamp;temperature;humidity
17236;DHT22;8734;59.272;17.780;2022-09-02T00:01:53;10.70;99.90
17236;DHT22;8734;59.272;17.780;2022-09-02T00:04:24;10.70;99.90
17236;DHT22;8734;59.272;17.780;2022-09-02T00:06:53;10.70;99.90
17236;DHT22;8734;59.272;17.780;2022-09-02T00:09:24;10.70;99.90
17236;DHT22;8734;59.272;17.780;2022-09-02T00:11:54;10.70;99.90
17236;DHT22;8734;59.272;17.780;2022-09-02T00:14:26;10.70;99.90
17236;DHT22;8734;59.272;17.780;2022-09-02T00:16:55;10.70;99.90
17236;DHT22;8734;59.272;17.780;2022-09-02T00:19:28;10.70;99.90
17236;DHT22;8734;59.272;17.780;2022-09-02T00:21:59;10.60;99.90
17236;DHT22;8734;59.272;17.780;2022-09-02T00:24:30;10.70;99.90
17236;DHT22;8734;59.272;17.780;2022-09-02T00:26:59;10.70;99.90
17236;DHT22;8734;59.272;17.780;2022-09-02T00:29:27;10.70;99.90
17236;DHT22;8734;59.272;17.780;2022-09-02T00:31:56;10.70;99.90
17236;DHT22;8734;59.272;17.780;2022-09-02T00:34:25;10.60;99.90
17236;DHT22;8734;59.272;17.780;2022-09-02T00:36:53;10.60;99.90
17236;DHT22;8734;59.272;17.780;2022-09-02T00:39:21;10.60;99.90
17236;DHT22;8734;59.272;17.780;2022-09-02T00:41:51;10.60;99.90
17236;DHT22;8734;59.272;17.780;2022-09-02T00:44:20;10.50;99.90
17236;DHT22;8734;59.272;17.780;2022-09-02T00:46:49;10.50;99.90
17236;DHT22;8734;59.272;17.780;2022-09-02T00:49:20;10.40;99.90
17236;DHT22;8734;59.272;17.780;2022-09-02T00:51:54;10.40;99.90
17236;DHT22;8734;59.272;17.780;2022-09-02T00:54:26;10.40;99.90
17236;DHT22;8734;59.272;17.780;2022-09-02T00:56:56;10.30;99.90
17236;DHT22;8734;59.272;17.780;2022-09-02T00:59:29;10.20;99.90
17236;DHT22;8734;59.272;17.780;2022-09-02T01:02:03;10.20;99.90
17236;DHT22;8734;59.272;17.780;2022-09-02T01:04:32;10.20;99.90
17236;DHT22;8734;59.272;17.780;2022-09-02T01:07:01;10.10;99.90
17236;DHT22;8734;59.272;17.780;2022-09-02T01:09:30;10.10;99.90
17236;DHT22;8734;59.272;17.780;2022-09-02T01:12:01;10.10;99.90
17236;DHT22;8734;59.272;17.780;2022-09-02T01:14:30;10.00;99.90
17236;DHT22;8734;59.272;17.780;2022-09-02T01:16:59;10.00;99.90
17236;DHT22;8734;59.272;17.780;2022-09-02T01:19:32;10.00;99.90
17236;DHT22;8734;59.272;17.780;2022-09-02T01:22:06;10.00;99.90
17236;DHT22;8734;59.272;17.780;2022-09-02T01:24:42;9.90;99.90
17236;DHT22;8734;59.272;17.780;2022-09-02T01:27:14;9.90;99.90
17236;DHT22;8734;59.272;17.780;2022-09-02T01:29:42;9.90;99.90
17236;DHT22;8734;59.272;17.780;2022-09-02T01:32:11;10.00;99.90
17236;DHT22;8734;59.272;17.780;2022-09-02T01:34:39;10.00;99.90
17236;DHT22;8734;59.272;17.780;2022-09-02T01:37:09;10.10;99.90
17236;DHT22;8734;59.272;17.780;2022-09-02T01:39:38;10.10;99.90
17236;DHT22;8734;59.272;17.780;2022-09-02T01:42:06;10.10;99.90
17236;DHT22;8734;59.272;17.780;2022-09-02T01:44:35;10.10;99.90
17236;DHT22;8734;59.272;17.780;2022-09-02T01:47:09;10.10;99.90
17236;DHT22;8734;59.272;17.780;2022-09-02T01:49:39;10.10;99.90
17236;DHT22;8734;59.272;17.780;2022-09-02T01:52:09;10.10;99.90
17236;DHT22;8734;59.272;17.780;2022-09-02T01:54:38;10.10;99.90
17236;DHT22;8734;59.272;17.780;2022-09-02T01:57:06;10.10;99.90
17236;DHT22;8734;59.272;17.780;2022-09-02T01:59:36;10.00;99.90
17236;DHT22;8734;59.272;17.780;2022-09-02T02:02:04;10.00;99.90
17236;DHT22;8734;59.272;17.780;2022-09-02T02:04:33;10.00;99.90
17236;DHT22;8734;59.272;17.780;2022-09-02T02:07:03;10.00;99.90
17236;DHT22;8734;59.272;17.780;2022-09-02T02:09:33;10.00;99.90
17236;DHT22;8734;59.272;17.780;2022-09-02T02:12:02;10.00;99.90
17236;DHT22;8734;59.272;17.780;2022-09-02T02:14:31;10.00;99.90
17236;DHT22;8734;59.272;17.780;2022-09-02T02:16:59;10.00;99.90
17236;DHT22;8734;59.272;17.780;2022-09-02T02:19:28;10.00;99.90
17236;DHT22;8734;59.272;17.780;2022-09-02T02:21:57;10.00;99.90
17236;DHT22;8734;59.272;17.780;2022-09-02T02:24:25;10.00;99.90
17236;DHT22;8734;59.272;17.780;2022-09-02T02:26:55;10.00;99.90
17236;DHT22;8734;59.272;17.780;2022-09-02T02:29:24;10.00;99.90
17236;DHT22;8734;59.272;17.780;2022-09-02T02:31:52;10.00;99.90
17236;DHT22;8734;59.272;17.780;2022-09-02T02:34:21;9.90;99.90
17236;DHT22;8734;59.272;17.780;2022-09-02T02:36:49;9.90;99.90
17236;DHT22;8734;59.272;17.780;2022-09-02T02:39:17;9.90;99.90
17236;DHT22;8734;59.272;17.780;2022-09-02T02:41:46;10.00;99.90
17236;DHT22;8734;59.272;17.780;2022-09-02T02:44:16;10.00;99.90
17236;DHT22;8734;59.272;17.780;2022-09-02T02:46:45;10.00;99.90
17236;DHT22;8734;59.272;17.780;2022-09-02T02:49:13;10.10;99.90
17236;DHT22;8734;59.272;17.780;2022-09-02T02:51:42;10.10;99.90
17236;DHT22;8734;59.272;17.780;2022-09-02T02:54:10;10.20;99.90
17236;DHT22;8734;59.272;17.780;2022-09-02T02:56:40;10.20;99.90
17236;DHT22;8734;59.272;17.780;2022-09-02T02:59:09;10.20;99.90
17236;DHT22;8734;59.272;17.780;2022-09-02T03:01:38;10.20;99.90
17236;DHT22;8734;59.272;17.780;2022-09-02T03:04:07;10.40;99.90
17236;DHT22;8734;59.272;17.780;2022-09-02T03:06:36;10.40;99.90
17236;DHT22;8734;59.272;17.780;2022-09-02T03:09:04;10.50;99.90
17236;DHT22;8734;59.272;17.780;2022-09-02T03:11:33;10.50;99.90
17236;DHT22;8734;59.272;17.780;2022-09-02T03:14:02;10.50;99.90
17236;DHT22;8734;59.272;17.780;2022-09-02T03:16:33;10.40;99.90
17236;DHT22;8734;59.272;17.780;2022-09-02T03:19:03;10.40;99.90
17236;DHT22;8734;59.272;17.780;2022-09-02T03:21:32;10.30;99.90
17236;DHT22;8734;59.272;17.780;2022-09-02T03:24:05;10.30;99.90
17236;DHT22;8734;59.272;17.780;2022-09-02T03:26:33;10.30;99.90
17236;DHT22;8734;59.272;17.780;2022-09-02T03:29:02;10.30;99.90
17236;DHT22;8734;59.272;17.780;2022-09-02T03:31:31;10.20;99.90
17236;DHT22;8734;59.272;17.780;2022-09-02T03:33:59;10.20;99.90
17236;DHT22;8734;59.272;17.780;2022-09-02T03:36:32;10.10;99.90
17236;DHT22;8734;59.272;17.780;2022-09-02T03:39:03;10.00;99.90
17236;DHT22;8734;59.272;17.780;2022-09-02T03:41:36;10.00;99.90
17236;DHT22;8734;59.272;17.780;2022-09-02T03:44:07;9.90;99.90
17236;DHT22;8734;59.272;17.780;2022-09-02T03:46:37;9.80;99.90
17236;DHT22;8734;59.272;17.780;2022-09-02T03:49:05;9.80;99.90
17236;DHT22;8734;59.272;17.780;2022-09-02T03:51:38;9.70;99.90
17236;DHT22;8734;59.272;17.780;2022-09-02T03:54:06;9.70;99.90
17236;DHT22;8734;59.272;17.780;2022-09-02T03:56:36;9.60;99.90
17236;DHT22;8734;59.272;17.780;2022-09-02T03:59:05;9.60;99.90
17236;DHT22;8734;59.272;17.780;2022-09-02T04:01:34;9.50;99.90
17236;DHT22;8734;59.272;17.780;2022-09-02T04:04:03;9.50;99.90
17236;DHT22;8734;59.272;17.780;2022-09-02T04:06:31;9.40;99.90
17236;DHT22;8734;59.272;17.780;2022-09-02T04:09:02;9.30;99.90
17236;DHT22;8734;59.272;17.780;2022-09-02T04:11:31;9.30;99.90
17236;DHT22;8734;59.272;17.780;2022-09-02T04:13:59;9.30;99.90
17236;DHT22;8734;59.272;17.780;2022-09-02T04:16:27;9.30;99.90
17236;DHT22;8734;59.272;17.780;2022-09-02T04:18:57;9.30;99.90
17236;DHT22;8734;59.272;17.780;2022-09-02T04:21:28;9.40;99.90
17236;DHT22;8734;59.272;17.780;2022-09-02T04:23:57;9.50;99.90
17236;DHT22;8734;59.272;17.780;2022-09-02T04:26:28;9.50;99.90
17236;DHT22;8734;59.272;17.780;2022-09-02T04:28:56;9.50;99.90
17236;DHT22;8734;59.272;17.780;2022-09-02T04:31:25;9.50;99.90
17236;DHT22;8734;59.272;17.780;2022-09-02T04:33:56;9.50;99.90
17236;DHT22;8734;59.272;17.780;2022-09-02T04:36:25;9.60;99.90
17236;DHT22;8734;59.272;17.780;2022-09-02T04:38:57;9.60;99.90
17236;DHT22;8734;59.272;17.780;2022-09-02T04:41:29;9.60;99.90
17236;DHT22;8734;59.272;17.780;2022-09-02T04:43:59;9.70;99.90
17236;DHT22;8734;59.272;17.780;2022-09-02T04:46:28;9.70;99.90
17236;DHT22;8734;59.272;17.780;2022-09-02T04:49:01;9.70;99.90
17236;DHT22;8734;59.272;17.780;2022-09-02T04:51:30;9.80;99.90
17236;DHT22;8734;59.272;17.780;2022-09-02T04:53:59;9.80;99.90
17236;DHT22;8734;59.272;17.780;2022-09-02T04:56:30;9.80;99.90
17236;DHT22;8734;59.272;17.780;2022-09-02T04:58:59;9.80;99.90
17236;DHT22;8734;59.272;17.780;2022-09-02T05:01:30;9.80;99.90
17236;DHT22;8734;59.272;17.780;2022-09-02T05:04:00;9.90;99.90
17236;DHT22;8734;59.272;17.780;2022-09-02T05:06:30;9.90;99.90
17236;DHT22;8734;59.272;17.780;2022-09-02T05:08:58;9.90;99.90
17236;DHT22;8734;59.272;17.780;2022-09-02T05:11:30;9.90;99.90
17236;DHT22;8734;59.272;17.780;2022-09-02T05:14:02;9.90;99.90
17236;DHT22;8734;59.272;17.780;2022-09-02T05:16:35;10.00;99.90
17236;DHT22;8734;59.272;17.780;2022-09-02T05:19:04;10.00;99.90
17236;DHT22;8734;59.272;17.780;2022-09-02T05:21:33;10.00;99.90
17236;DHT22;8734;59.272;17.780;2022-09-02T05:24:02;10.10;99.90
17236;DHT22;8734;59.272;17.780;2022-09-02T05:26:32;10.10;99.90
17236;DHT22;8734;59.272;17.780;2022-09-02T05:29:02;10.20;99.90
17236;DHT22;8734;59.272;17.780;2022-09-02T05:31:31;10.20;99.90
17236;DHT22;8734;59.272;17.780;2022-09-02T05:34:00;10.30;99.90
17236;DHT22;8734;59.272;17.780;2022-09-02T05:36:29;10.30;99.90
17236;DHT22;8734;59.272;17.780;2022-09-02T05:38:58;10.40;99.90
17236;DHT22;8734;59.272;17.780;2022-09-02T05:41:27;10.40;99.90
17236;DHT22;8734;59.272;17.780;2022-09-02T05:43:59;10.50;99.90
17236;DHT22;8734;59.272;17.780;2022-09-02T05:46:30;10.50;99.90
17236;DHT22;8734;59.272;17.780;2022-09-02T05:48:59;10.60;99.90
17236;DHT22;8734;59.272;17.780;2022-09-02T05:51:39;10.60;99.90
17236;DHT22;8734;59.272;17.780;2022-09-02T05:54:10;10.60;99.90
17236;DHT22;8734;59.272;17.780;2022-09-02T05:56:40;10.60;99.90
17236;DHT22;8734;59.272;17.780;2022-09-02T05:59:13;10.70;99.90
17236;DHT22;8734;59.272;17.780;2022-09-02T06:01:42;10.70;99.90
17236;DHT22;8734;59.272;17.780;2022-09-02T06:04:11;10.70;99.90
17236;DHT22;8734;59.272;17.780;2022-09-02T06:06:40;10.70;99.90
17236;DHT22;8734;59.272;17.780;2022-09-02T06:09:13;10.70;99.90
17236;DHT22;8734;59.272;17.780;2022-09-02T06:11:43;10.70;99.90
17236;DHT22;8734;59.272;17.780;2022-09-02T06:14:17;10.70;99.90
17236;DHT22;8734;59.272;17.780;2022-09-02T06:16:47;10.70;99.90
17236;DHT22;8734;59.272;17.780;2022-09-02T06:19:17;10.80;99.90
17236;DHT22;8734;59.272;17.780;2022-09-02T06:21:46;10.90;99.90
17236;DHT22;8734;59.272;17.780;2022-09-02T06:24:15;10.90;99.90
17236;DHT22;8734;59.272;17.780;2022-09-02T06:26:44;10.90;99.90
17236;DHT22;8734;59.272;17.780;2022-09-02T06:29:12;11.00;99.90
17236;DHT22;8734;59.272;17.780;2022-09-02T06:31:43;11.00;99.90
17236;DHT22;8734;59.272;17.780;2022-09-02T06:34:14;11.00;99.90
17236;DHT22;8734;59.272;17.780;2022-09-02T06:36:44;11.00;99.90
17236;DHT22;8734;59.272;17.780;2022-09-02T06:39:16;11.10;99.90
17236;DHT22;8734;59.272;17.780;2022-09-02T06:41:45;11.10;99.90
17236;DHT22;8734;59.272;17.780;2022-09-02T06:44:16;11.20;99.90
17236;DHT22;8734;59.272;17.780;2022-09-02T06:46:53;11.30;99.90
17236;DHT22;8734;59.272;17.780;2022-09-02T06:49:23;11.50;99.90
17236;DHT22;8734;59.272;17.780;2022-09-02T06:51:53;11.50;99.90
17236;DHT22;8734;59.272;17.780;2022-09-02T06:54:24;11.50;99.90
17236;DHT22;8734;59.272;17.780;2022-09-02T06:56:53;11.60;99.90
17236;DHT22;8734;59.272;17.780;2022-09-02T06:59:22;11.70;99.90
17236;DHT22;8734;59.272;17.780;2022-09-02T07:01:53;11.90;99.90
17236;DHT22;8734;59.272;17.780;2022-09-02T07:04:21;11.90;99.90
17236;DHT22;8734;59.272;17.780;2022-09-02T07:07:08;11.90;99.90
17236;DHT22;8734;59.272;17.780;2022-09-02T07:09:38;11.80;99.90
17236;DHT22;8734;59.272;17.780;2022-09-02T07:12:06;11.90;99.90
17236;DHT22;8734;59.272;17.780;2022-09-02T07:14:36;11.80;99.90
17236;DHT22;8734;59.272;17.780;2022-09-02T07:17:07;11.90;99.90
17236;DHT22;8734;59.272;17.780;2022-09-02T07:19:37;12.00;99.90
17236;DHT22;8734;59.272;17.780;2022-09-02T07:22:06;12.20;99.90
17236;DHT22;8734;59.272;17.780;2022-09-02T07:24:34;12.20;99.90
17236;DHT22;8734;59.272;17.780;2022-09-02T07:27:03;12.30;99.90
17236;DHT22;8734;59.272;17.780;2022-09-02T07:29:33;12.50;99.90
17236;DHT22;8734;59.272;17.780;2022-09-02T07:32:01;12.60;99.90
17236;DHT22;8734;59.272;17.780;2022-09-02T07:34:31;12.70;99.90
17236;DHT22;8734;59.272;17.780;2022-09-02T07:37:00;12.70;99.90
17236;DHT22;8734;59.272;17.780;2022-09-02T07:39:34;12.80;99.90
17236;DHT22;8734;59.272;17.780;2022-09-02T07:42:03;13.10;99.90
17236;DHT22;8734;59.272;17.780;2022-09-02T07:44:33;13.40;99.90
17236;DHT22;8734;59.272;17.780;2022-09-02T07:47:03;13.80;99.90
17236;DHT22;8734;59.272;17.780;2022-09-02T07:49:33;14.20;99.90
17236;DHT22;8734;59.272;17.780;2022-09-02T07:52:21;14.40;99.90
17236;DHT22;8734;59.272;17.780;2022-09-02T07:54:50;14.50;99.90
17236;DHT22;8734;59.272;17.780;2022-09-02T07:57:18;14.50;99.90
17236;DHT22;8734;59.272;17.780;2022-09-02T07:59:46;14.60;99.90
17236;DHT22;8734;59.272;17.780;2022-09-02T08:02:16;14.80;99.90
17236;DHT22;8734;59.272;17.780;2022-09-02T08:04:46;14.70;99.90
17236;DHT22;8734;59.272;17.780;2022-09-02T08:07:14;14.80;99.90
17236;DHT22;8734;59.272;17.780;2022-09-02T08:09:50;15.10;99.90
17236;DHT22;8734;59.272;17.780;2022-09-02T08:12:18;15.10;99.90
17236;DHT22;8734;59.272;17.780;2022-09-02T08:14:48;14.90;99.90
17236;DHT22;8734;59.272;17.780;2022-09-02T08:17:17;15.50;99.90
17236;DHT22;8734;59.272;17.780;2022-09-02T08:19:47;15.50;99.90
17236;DHT22;8734;59.272;17.780;2022-09-02T08:22:15;15.70;99.90
17236;DHT22;8734;59.272;17.780;2022-09-02T08:24:44;15.70;99.90
17236;DHT22;8734;59.272;17.780;2022-09-02T08:27:12;16.20;99.90
17236;DHT22;8734;59.272;17.780;2022-09-02T08:29:40;16.20;99.90
17236;DHT22;8734;59.272;17.780;2022-09-02T08:32:09;16.50;99.90
17236;DHT22;8734;59.272;17.780;2022-09-02T08:34:37;17.00;99.90
17236;DHT22;8734;59.272;17.780;2022-09-02T08:37:07;17.00;99.90
17236;DHT22;8734;59.272;17.780;2022-09-02T08:39:36;17.30;99.90
17236;DHT22;8734;59.272;17.780;2022-09-02T08:42:07;17.30;99.90
17236;DHT22;8734;59.272;17.780;2022-09-02T08:44:38;17.50;99.90
17236;DHT22;8734;59.272;17.780;2022-09-02T08:47:11;17.80;99.90
17236;DHT22;8734;59.272;17.780;2022-09-02T08:49:42;18.00;99.90
17236;DHT22;8734;59.272;17.780;2022-09-02T08:52:19;17.70;99.90
17236;DHT22;8734;59.272;17.780;2022-09-02T08:54:52;17.30;99.90
17236;DHT22;8734;59.272;17.780;2022-09-02T08:57:22;17.30;99.90
17236;DHT22;8734;59.272;17.780;2022-09-02T08:59:54;17.50;99.90
17236;DHT22;8734;59.272;17.780;2022-09-02T09:02:29;17.20;99.90
17236;DHT22;8734;59.272;17.780;2022-09-02T09:05:09;17.70;99.90
17236;DHT22;8734;59.272;17.780;2022-09-02T09:07:51;17.90;99.90
17236;DHT22;8734;59.272;17.780;2022-09-02T09:10:24;18.00;99.90
17236;DHT22;8734;59.272;17.780;2022-09-02T09:13:16;18.30;99.90
17236;DHT22;8734;59.272;17.780;2022-09-02T09:15:54;18.80;99.90
17236;DHT22;8734;59.272;17.780;2022-09-02T09:18:31;18.80;99.90
17236;DHT22;8734;59.272;17.780;2022-09-02T09:21:00;18.40;99.90
17236;DHT22;8734;59.272;17.780;2022-09-02T09:23:32;17.00;99.90
17236;DHT22;8734;59.272;17.780;2022-09-02T09:26:06;16.80;99.90
17236;DHT22;8734;59.272;17.780;2022-09-02T09:28:39;16.70;99.90
17236;DHT22;8734;59.272;17.780;2022-09-02T09:31:12;17.20;99.90
17236;DHT22;8734;59.272;17.780;2022-09-02T09:33:54;18.10;99.90
17236;DHT22;8734;59.272;17.780;2022-09-02T09:36:43;18.50;99.90
17236;DHT22;8734;59.272;17.780;2022-09-02T09:39:23;18.70;99.90
17236;DHT22;8734;59.272;17.780;2022-09-02T09:41:54;18.20;99.90
17236;DHT22;8734;59.272;17.780;2022-09-02T09:44:38;17.40;99.90
17236;DHT22;8734;59.272;17.780;2022-09-02T09:47:08;17.20;99.90
17236;DHT22;8734;59.272;17.780;2022-09-02T09:49:43;17.50;99.90
17236;DHT22;8734;59.272;17.780;2022-09-02T09:52:21;18.10;99.90
17236;DHT22;8734;59.272;17.780;2022-09-02T09:55:06;18.60;99.90
17236;DHT22;8734;59.272;17.780;2022-09-02T09:57:38;18.80;99.90
17236;DHT22;8734;59.272;17.780;2022-09-02T10:00:20;19.10;99.90
17236;DHT22;8734;59.272;17.780;2022-09-02T10:02:50;19.10;99.90
17236;DHT22;8734;59.272;17.780;2022-09-02T10:05:32;19.40;99.90
17236;DHT22;8734;59.272;17.780;2022-09-02T10:08:03;20.00;99.90
17236;DHT22;8734;59.272;17.780;2022-09-02T10:10:55;19.30;99.90
17236;DHT22;8734;59.272;17.780;2022-09-02T10:13:25;18.50;99.90
17236;DHT22;8734;59.272;17.780;2022-09-02T10:18:56;16.00;99.90
17236;DHT22;8734;59.272;17.780;2022-09-02T10:21:46;17.50;99.90
17236;DHT22;8734;59.272;17.780;2022-09-02T10:24:49;18.90;99.90
17236;DHT22;8734;59.272;17.780;2022-09-02T10:27:31;20.10;99.90
17236;DHT22;8734;59.272;17.780;2022-09-02T10:30:05;21.50;99.90
17236;DHT22;8734;59.272;17.780;2022-09-02T10:32:53;23.10;99.90
17236;DHT22;8734;59.272;17.780;2022-09-02T10:35:28;20.50;99.90
17236;DHT22;8734;59.272;17.780;2022-09-02T10:38:05;20.60;99.90
17236;DHT22;8734;59.272;17.780;2022-09-02T10:40:41;21.50;99.90
17236;DHT22;8734;59.272;17.780;2022-09-02T10:43:26;23.10;99.90
17236;DHT22;8734;59.272;17.780;2022-09-02T10:45:58;23.00;99.90
17236;DHT22;8734;59.272;17.780;2022-09-02T10:48:36;23.00;99.90
17236;DHT22;8734;59.272;17.780;2022-09-02T10:51:14;22.00;99.90
17236;DHT22;8734;59.272;17.780;2022-09-02T10:53:57;22.30;99.90
17236;DHT22;8734;59.272;17.780;2022-09-02T10:56:34;21.50;99.90
17236;DHT22;8734;59.272;17.780;2022-09-02T10:59:12;20.90;99.90
17236;DHT22;8734;59.272;17.780;2022-09-02T11:01:45;20.10;99.90
17236;DHT22;8734;59.272;17.780;2022-09-02T11:04:18;18.60;99.90
17236;DHT22;8734;59.272;17.780;2022-09-02T11:06:52;17.40;99.90
17236;DHT22;8734;59.272;17.780;2022-09-02T11:09:35;17.00;99.90
17236;DHT22;8734;59.272;17.780;2022-09-02T11:12:09;17.80;99.90
17236;DHT22;8734;59.272;17.780;2022-09-02T11:14:52;18.00;99.90
17236;DHT22;8734;59.272;17.780;2022-09-02T11:17:25;16.80;99.90
17236;DHT22;8734;59.272;17.780;2022-09-02T11:20:00;15.80;99.90
17236;DHT22;8734;59.272;17.780;2022-09-02T11:22:39;15.30;99.90
17236;DHT22;8734;59.272;17.780;2022-09-02T11:25:14;15.00;99.90
17236;DHT22;8734;59.272;17.780;2022-09-02T11:27:47;14.50;99.90
17236;DHT22;8734;59.272;17.780;2022-09-02T11:30:24;14.50;99.90
17236;DHT22;8734;59.272;17.780;2022-09-02T11:32:57;14.50;99.90
17236;DHT22;8734;59.272;17.780;2022-09-02T11:35:32;14.60;99.90
17236;DHT22;8734;59.272;17.780;2022-09-02T11:38:04;15.30;99.90
17236;DHT22;8734;59.272;17.780;2022-09-02T11:40:37;15.10;99.90
17236;DHT22;8734;59.272;17.780;2022-09-02T11:43:21;14.80;99.90
17236;DHT22;8734;59.272;17.780;2022-09-02T11:54:53;20.10;99.90
17236;DHT22;8734;59.272;17.780;2022-09-02T11:57:31;19.20;99.90
17236;DHT22;8734;59.272;17.780;2022-09-02T12:00:28;21.00;99.90
17236;DHT22;8734;59.272;17.780;2022-09-02T12:03:12;21.90;99.90
17236;DHT22;8734;59.272;17.780;2022-09-02T12:06:07;19.60;99.90
17236;DHT22;8734;59.272;17.780;2022-09-02T12:09:09;17.30;99.90
17236;DHT22;8734;59.272;17.780;2022-09-02T12:11:40;17.00;99.90
17236;DHT22;8734;59.272;17.780;2022-09-02T12:14:11;17.20;99.90
17236;DHT22;8734;59.272;17.780;2022-09-02T12:17:01;17.00;99.90
17236;DHT22;8734;59.272;17.780;2022-09-02T12:19:42;16.60;99.90
17236;DHT22;8734;59.272;17.780;2022-09-02T12:22:24;16.10;99.90
17236;DHT22;8734;59.272;17.780;2022-09-02T12:24:55;16.30;99.90
17236;DHT22;8734;59.272;17.780;2022-09-02T12:27:29;18.10;99.90
17236;DHT22;8734;59.272;17.780;2022-09-02T12:29:59;20.40;99.90
17236;DHT22;8734;59.272;17.780;2022-09-02T12:33:09;21.90;99.90
17236;DHT22;8734;59.272;17.780;2022-09-02T12:35:53;23.10;99.90
17236;DHT22;8734;59.272;17.780;2022-09-02T12:38:25;22.40;99.90
17236;DHT22;8734;59.272;17.780;2022-09-02T12:41:00;22.30;99.90
17236;DHT22;8734;59.272;17.780;2022-09-02T12:43:56;21.30;99.90
17236;DHT22;8734;59.272;17.780;2022-09-02T12:46:30;21.70;99.90
17236;DHT22;8734;59.272;17.780;2022-09-02T12:49:09;23.50;99.90
17236;DHT22;8734;59.272;17.780;2022-09-02T12:51:54;24.10;99.90
17236;DHT22;8734;59.272;17.780;2022-09-02T12:54:30;23.00;99.90
17236;DHT22;8734;59.272;17.780;2022-09-02T12:57:02;21.30;99.90
17236;DHT22;8734;59.272;17.780;2022-09-02T12:59:32;21.30;99.90
17236;DHT22;8734;59.272;17.780;2022-09-02T13:05:04;17.50;99.90
17236;DHT22;8734;59.272;17.780;2022-09-02T13:10:55;17.60;99.90
17236;DHT22;8734;59.272;17.780;2022-09-02T13:13:56;18.70;99.90
17236;DHT22;8734;59.272;17.780;2022-09-02T13:16:38;18.30;99.90
17236;DHT22;8734;59.272;17.780;2022-09-02T13:19:27;16.90;99.90
17236;DHT22;8734;59.272;17.780;2022-09-02T13:25:44;15.50;99.90
17236;DHT22;8734;59.272;17.780;2022-09-02T13:28:47;15.30;99.90
17236;DHT22;8734;59.272;17.780;2022-09-02T13:31:19;15.60;99.90
17236;DHT22;8734;59.272;17.780;2022-09-02T13:33:57;15.50;99.90
17236;DHT22;8734;59.272;17.780;2022-09-02T13:36:27;15.40;99.90
17236;DHT22;8734;59.272;17.780;2022-09-02T13:39:09;15.40;99.90
17236;DHT22;8734;59.272;17.780;2022-09-02T13:41:40;15.00;99.90
17236;DHT22;8734;59.272;17.780;2022-09-02T13:44:10;15.00;99.90
17236;DHT22;8734;59.272;17.780;2022-09-02T13:46:43;15.00;99.90
17236;DHT22;8734;59.272;17.780;2022-09-02T13:49:24;14.80;99.90
17236;DHT22;8734;59.272;17.780;2022-09-02T13:51:54;14.80;99.90
17236;DHT22;8734;59.272;17.780;2022-09-02T13:54:30;14.70;99.90
17236;DHT22;8734;59.272;17.780;2022-09-02T13:57:02;14.70;99.90
17236;DHT22;8734;59.272;17.780;2022-09-02T13:59:36;14.70;99.90
17236;DHT22;8734;59.272;17.780;2022-09-02T14:02:21;14.80;99.90
17236;DHT22;8734;59.272;17.780;2022-09-02T14:04:53;15.00;99.90
17236;DHT22;8734;59.272;17.780;2022-09-02T14:07:29;15.10;99.90
17236;DHT22;8734;59.272;17.780;2022-09-02T14:10:00;14.90;99.90
17236;DHT22;8734;59.272;17.780;2022-09-02T14:12:33;15.10;99.90
17236;DHT22;8734;59.272;17.780;2022-09-02T14:15:02;15.20;99.90
17236;DHT22;8734;59.272;17.780;2022-09-02T14:17:32;15.10;99.90
17236;DHT22;8734;59.272;17.780;2022-09-02T14:20:17;14.90;99.90
17236;DHT22;8734;59.272;17.780;2022-09-02T14:22:51;15.10;99.90
17236;DHT22;8734;59.272;17.780;2022-09-02T14:25:21;15.10;99.90
17236;DHT22;8734;59.272;17.780;2022-09-02T14:27:56;14.90;99.90
17236;DHT22;8734;59.272;17.780;2022-09-02T14:30:31;14.60;99.90
17236;DHT22;8734;59.272;17.780;2022-09-02T14:33:18;14.40;99.90
17236;DHT22;8734;59.272;17.780;2022-09-02T14:36:01;14.40;99.90
17236;DHT22;8734;59.272;17.780;2022-09-02T14:38:34;14.40;99.90
17236;DHT22;8734;59.272;17.780;2022-09-02T14:41:04;14.50;99.90
17236;DHT22;8734;59.272;17.780;2022-09-02T14:43:43;14.50;99.90
17236;DHT22;8734;59.272;17.780;2022-09-02T14:46:23;14.50;99.90
17236;DHT22;8734;59.272;17.780;2022-09-02T14:48:55;14.30;99.90
17236;DHT22;8734;59.272;17.780;2022-09-02T14:51:31;14.30;99.90
17236;DHT22;8734;59.272;17.780;2022-09-02T14:54:01;14.30;99.90
17236;DHT22;8734;59.272;17.780;2022-09-02T14:56:45;14.30;99.90
17236;DHT22;8734;59.272;17.780;2022-09-02T14:59:17;14.10;99.90
17236;DHT22;8734;59.272;17.780;2022-09-02T15:01:47;14.20;99.90
17236;DHT22;8734;59.272;17.780;2022-09-02T15:04:18;14.20;99.90
17236;DHT22;8734;59.272;17.780;2022-09-02T15:06:46;14.10;99.90
17236;DHT22;8734;59.272;17.780;2022-09-02T15:09:15;14.00;99.90
17236;DHT22;8734;59.272;17.780;2022-09-02T15:11:47;14.10;99.90
17236;DHT22;8734;59.272;17.780;2022-09-02T15:14:17;14.10;99.90
17236;DHT22;8734;59.272;17.780;2022-09-02T15:16:46;14.10;99.90
17236;DHT22;8734;59.272;17.780;2022-09-02T15:19:14;14.30;99.90
17236;DHT22;8734;59.272;17.780;2022-09-02T15:21:43;14.60;99.90
17236;DHT22;8734;59.272;17.780;2022-09-02T15:24:11;14.70;99.90
17236;DHT22;8734;59.272;17.780;2022-09-02T15:26:40;14.90;99.90
17236;DHT22;8734;59.272;17.780;2022-09-02T15:29:08;15.00;99.90
17236;DHT22;8734;59.272;17.780;2022-09-02T15:31:37;14.80;99.90
17236;DHT22;8734;59.272;17.780;2022-09-02T15:34:07;14.90;99.90
17236;DHT22;8734;59.272;17.780;2022-09-02T15:36:35;14.90;99.90
17236;DHT22;8734;59.272;17.780;2022-09-02T15:39:04;14.90;99.90
17236;DHT22;8734;59.272;17.780;2022-09-02T15:41:32;14.90;99.90
17236;DHT22;8734;59.272;17.780;2022-09-02T15:44:03;15.00;99.90
17236;DHT22;8734;59.272;17.780;2022-09-02T15:46:34;14.90;99.90
17236;DHT22;8734;59.272;17.780;2022-09-02T15:49:06;14.80;99.90
17236;DHT22;8734;59.272;17.780;2022-09-02T15:51:35;14.80;99.90
17236;DHT22;8734;59.272;17.780;2022-09-02T15:54:06;14.90;99.90
17236;DHT22;8734;59.272;17.780;2022-09-02T15:56:37;14.80;99.90
17236;DHT22;8734;59.272;17.780;2022-09-02T15:59:07;14.60;99.90
17236;DHT22;8734;59.272;17.780;2022-09-02T16:01:38;14.50;99.90
17236;DHT22;8734;59.272;17.780;2022-09-02T16:04:09;14.40;99.90
17236;DHT22;8734;59.272;17.780;2022-09-02T16:06:40;14.20;99.90
17236;DHT22;8734;59.272;17.780;2022-09-02T16:09:10;14.20;99.90
17236;DHT22;8734;59.272;17.780;2022-09-02T16:11:39;14.20;99.90
17236;DHT22;8734;59.272;17.780;2022-09-02T16:14:08;14.10;99.90
17236;DHT22;8734;59.272;17.780;2022-09-02T16:16:38;14.10;99.90
17236;DHT22;8734;59.272;17.780;2022-09-02T16:19:08;14.00;99.90
17236;DHT22;8734;59.272;17.780;2022-09-02T16:21:37;13.90;99.90
17236;DHT22;8734;59.272;17.780;2022-09-02T16:24:07;13.90;99.90
17236;DHT22;8734;59.272;17.780;2022-09-02T16:26:37;13.80;99.90
17236;DHT22;8734;59.272;17.780;2022-09-02T16:29:06;13.80;99.90